Time;durP1;ratioP1;P1;durP2;ratioP2;P2;SDS_P1;SDS_P2;PMS_P1;PMS_P2;Temp;Humidity;BMP_temperature;BMP_pressure;BME280_temperature;BME280_humidity;BME280_pressure;Samples;Min_cycle;Max_cycle;Signal;HPM_P1;HPM_P2
2023/10/27 00:02:06;;;;;;;7.07;2.92;;;;;;;;;;4974394;28;20068;-63
2023/10/27 00:04:31;;;;;;;10.02;2.60;;;;;;;;;;4970454;28;20021;-63
2023/10/27 00:06:56;;;;;;;8.70;3.03;;;;;;;;;;4967645;28;20026;-62
2023/10/27 00:09:22;;;;;;;6.10;2.83;;;;;;;;;;4973303;28;20036;-63
2023/10/27 00:11:47;;;;;;;9.53;3.27;;;;;;;;;;4972666;28;20954;-63
2023/10/27 00:14:12;;;;;;;10.18;3.17;;;;;;;;;;4971523;28;21015;-63
2023/10/27 00:16:37;;;;;;;6.35;3.30;;;;;;;;;;4973196;28;20799;-63
2023/10/27 00:19:03;;;;;;;7.32;3.42;;;;;;;;;;4987010;28;20066;-63
2023/10/27 00:21:28;;;;;;;5.85;2.72;;;;;;;;;;4970261;28;21036;-63
2023/10/27 00:23:53;;;;;;;8.95;2.78;;;;;;;;;;4970938;28;20032;-63
2023/10/27 00:26:18;;;;;;;5.90;2.40;;;;;;;;;;4969901;28;20018;-63
2023/10/27 00:28:45;;;;;;;7.72;3.28;;;;;;;;;;4971701;28;20020;-63
2023/10/27 00:31:11;;;;;;;5.90;2.95;;;;;;;;;;4971542;28;20092;-63
2023/10/27 00:33:36;;;;;;;6.13;2.33;;;;;;;;;;4973191;28;20022;-63
2023/10/27 00:36:01;;;;;;;12.00;2.97;;;;;;;;;;4973018;28;20026;-63
2023/10/27 00:38:26;;;;;;;7.00;2.88;;;;;;;;;;4963206;28;20809;-62
2023/10/27 00:40:52;;;;;;;5.30;2.55;;;;;;;;;;4971873;28;20028;-63
2023/10/27 00:43:17;;;;;;;4.35;2.17;;;;;;;;;;4969746;28;20140;-63
2023/10/27 00:45:47;;;;;;;3.70;2.20;;;;;;;;;;4970974;28;20033;-62
2023/10/27 00:48:13;;;;;;;6.45;2.60;;;;;;;;;;4970164;28;20042;-63
2023/10/27 00:50:38;;;;;;;10.00;2.97;;;;;;;;;;4971246;28;20029;-63
2023/10/27 00:53:03;;;;;;;10.13;3.17;;;;;;;;;;4974297;28;20029;-62
2023/10/27 00:55:29;;;;;;;8.65;2.90;;;;;;;;;;4969918;28;20547;-62
2023/10/27 00:57:56;;;;;;;6.95;2.78;;;;;;;;;;4972038;28;20057;-62
2023/10/27 01:00:21;;;;;;;5.15;2.33;;;;;;;;;;4968362;28;20071;-62
2023/10/27 01:02:46;;;;;;;6.28;2.80;;;;;;;;;;4970671;28;20873;-62
2023/10/27 01:05:12;;;;;;;8.90;2.78;;;;;;;;;;4971213;28;20030;-61
2023/10/27 01:07:38;;;;;;;7.28;2.88;;;;;;;;;;4970821;28;20133;-62
2023/10/27 01:10:03;;;;;;;5.40;2.90;;;;;;;;;;4970045;28;20876;-62
2023/10/27 01:12:29;;;;;;;7.43;2.85;;;;;;;;;;4969912;28;20018;-62
2023/10/27 01:14:54;;;;;;;6.60;3.30;;;;;;;;;;4969744;28;20030;-62
2023/10/27 01:17:19;;;;;;;6.80;3.70;;;;;;;;;;4971324;28;20025;-62
2023/10/27 01:19:45;;;;;;;11.47;4.07;;;;;;;;;;4970011;28;20874;-62
2023/10/27 01:22:14;;;;;;;5.80;3.33;;;;;;;;;;4971660;28;21168;-62
2023/10/27 01:24:40;;;;;;;6.65;3.88;;;;;;;;;;4969874;28;20030;-62
2023/10/27 01:27:05;;;;;;;7.93;3.70;;;;;;;;;;4973188;28;20918;-62
2023/10/27 01:29:30;;;;;;;7.03;3.38;;;;;;;;;;4970942;28;20142;-62
2023/10/27 01:31:55;;;;;;;7.57;4.15;;;;;;;;;;4971434;28;20017;-62
2023/10/27 01:34:21;;;;;;;10.77;3.75;;;;;;;;;;4971767;28;20032;-62
2023/10/27 01:36:46;;;;;;;5.90;3.17;;;;;;;;;;4971571;28;20021;-62
2023/10/27 01:39:12;;;;;;;9.13;4.47;;;;;;;;;;4970293;28;20536;-62
2023/10/27 01:41:38;;;;;;;7.55;3.58;;;;;;;;;;4971504;28;21209;-62
2023/10/27 01:44:03;;;;;;;9.05;3.63;;;;;;;;;;4970919;28;20092;-62
2023/10/27 01:46:28;;;;;;;5.18;2.97;;;;;;;;;;4969340;28;20133;-62
2023/10/27 01:48:54;;;;;;;5.30;2.77;;;;;;;;;;4969669;28;20088;-62
2023/10/27 01:51:19;;;;;;;5.45;3.00;;;;;;;;;;4970375;28;20342;-62
2023/10/27 01:53:44;;;;;;;7.05;3.40;;;;;;;;;;4972469;28;20022;-62
2023/10/27 01:56:09;;;;;;;6.50;2.72;;;;;;;;;;4972354;28;20022;-62
2023/10/27 01:58:39;;;;;;;5.10;2.70;;;;;;;;;;4966617;28;20037;-62
2023/10/27 02:01:05;;;;;;;10.63;3.30;;;;;;;;;;4964602;28;20899;-62
2023/10/27 02:03:30;;;;;;;6.80;2.92;;;;;;;;;;4971050;28;20083;-62
2023/10/27 02:05:56;;;;;;;10.73;2.95;;;;;;;;;;4970883;28;20946;-62
2023/10/27 02:08:21;;;;;;;6.35;2.40;;;;;;;;;;4969953;28;20072;-62
2023/10/27 02:10:47;;;;;;;5.45;2.88;;;;;;;;;;4969366;28;20064;-62
2023/10/27 02:13:12;;;;;;;6.80;2.75;;;;;;;;;;4970462;28;20030;-62
2023/10/27 02:15:37;;;;;;;9.18;2.70;;;;;;;;;;4970107;28;20060;-62
2023/10/27 02:18:03;;;;;;;7.15;2.90;;;;;;;;;;4969676;28;20030;-62
2023/10/27 02:20:29;;;;;;;5.35;2.13;;;;;;;;;;4967403;28;20022;-62
2023/10/27 02:22:55;;;;;;;5.93;2.88;;;;;;;;;;4969754;28;20213;-62
2023/10/27 02:25:21;;;;;;;5.13;2.65;;;;;;;;;;4962894;28;20977;-62
2023/10/27 02:27:46;;;;;;;3.92;2.05;;;;;;;;;;4969310;28;20046;-62
2023/10/27 02:30:11;;;;;;;5.70;2.67;;;;;;;;;;4964732;28;20022;-62
2023/10/27 02:32:36;;;;;;;5.82;2.50;;;;;;;;;;4971557;28;20084;-62
2023/10/27 02:35:02;;;;;;;7.10;2.28;;;;;;;;;;4969106;28;20033;-62
2023/10/27 02:37:27;;;;;;;8.60;2.70;;;;;;;;;;4970099;28;20130;-62
2023/10/27 02:39:52;;;;;;;4.63;2.40;;;;;;;;;;4970045;28;20871;-62
2023/10/27 02:42:18;;;;;;;6.28;2.70;;;;;;;;;;4962086;28;20269;-62
2023/10/27 02:44:43;;;;;;;9.07;2.80;;;;;;;;;;4968315;28;20064;-62
2023/10/27 02:47:08;;;;;;;4.63;2.40;;;;;;;;;;4969517;28;20288;-62
2023/10/27 02:49:33;;;;;;;7.13;2.60;;;;;;;;;;4970283;28;20029;-62
2023/10/27 02:51:59;;;;;;;5.18;2.42;;;;;;;;;;4961940;28;20033;-62
2023/10/27 02:54:24;;;;;;;5.75;2.35;;;;;;;;;;4968388;28;20109;-62
2023/10/27 02:56:49;;;;;;;5.77;2.40;;;;;;;;;;4967531;28;20875;-63
2023/10/27 02:59:14;;;;;;;6.93;3.40;;;;;;;;;;4969678;28;21198;-63
2023/10/27 03:01:40;;;;;;;9.07;3.10;;;;;;;;;;4970663;28;21234;-63
2023/10/27 03:04:05;;;;;;;8.43;3.13;;;;;;;;;;4970552;28;21196;-62
2023/10/27 03:06:30;;;;;;;8.13;2.63;;;;;;;;;;4969877;28;20049;-62
2023/10/27 03:08:55;;;;;;;4.70;2.53;;;;;;;;;;4970607;28;20025;-63
2023/10/27 03:11:20;;;;;;;7.60;3.08;;;;;;;;;;4968058;28;20257;-63
2023/10/27 03:13:46;;;;;;;5.87;3.10;;;;;;;;;;4970143;28;20033;-63
2023/10/27 03:16:11;;;;;;;5.22;2.60;;;;;;;;;;4971670;28;20265;-63
2023/10/27 03:18:36;;;;;;;5.38;2.20;;;;;;;;;;4970055;28;20061;-63
2023/10/27 03:21:05;;;;;;;6.37;2.80;;;;;;;;;;4972220;28;20528;-63
2023/10/27 03:23:31;;;;;;;3.60;2.17;;;;;;;;;;4970981;28;20399;-65
2023/10/27 03:25:58;;;;;;;7.03;3.05;;;;;;;;;;4970995;28;20741;-63
2023/10/27 03:28:23;;;;;;;4.38;2.47;;;;;;;;;;4970947;28;20119;-62
2023/10/27 03:30:49;;;;;;;5.03;2.75;;;;;;;;;;4967529;28;20307;-63
2023/10/27 03:33:16;;;;;;;4.45;2.40;;;;;;;;;;4972859;28;20057;-63
2023/10/27 03:35:42;;;;;;;4.72;2.45;;;;;;;;;;4968348;28;20069;-62
2023/10/27 03:38:08;;;;;;;5.40;2.53;;;;;;;;;;4968571;28;20124;-63
2023/10/27 03:40:33;;;;;;;5.35;2.40;;;;;;;;;;4967105;28;20202;-63
2023/10/27 03:42:59;;;;;;;5.63;3.27;;;;;;;;;;4966158;28;20755;-62
2023/10/27 03:45:25;;;;;;;3.67;2.08;;;;;;;;;;4965307;28;21069;-62
2023/10/27 03:47:50;;;;;;;6.32;2.55;;;;;;;;;;4969856;28;20014;-62
2023/10/27 03:50:15;;;;;;;4.82;2.53;;;;;;;;;;4968566;28;20732;-62
2023/10/27 03:52:40;;;;;;;6.45;2.33;;;;;;;;;;4971861;28;20068;-62
2023/10/27 03:55:07;;;;;;;4.50;2.30;;;;;;;;;;4969389;28;20877;-63
2023/10/27 03:57:35;;;;;;;7.22;2.65;;;;;;;;;;4969848;28;20280;-63
2023/10/27 04:00:00;;;;;;;6.55;2.70;;;;;;;;;;4969314;28;20050;-63
2023/10/27 04:02:26;;;;;;;4.55;1.65;;;;;;;;;;4968417;28;20100;-63
2023/10/27 04:04:51;;;;;;;4.20;1.97;;;;;;;;;;4969510;28;20030;-63
2023/10/27 04:07:16;;;;;;;5.17;2.00;;;;;;;;;;4970885;28;20257;-63
2023/10/27 04:09:41;;;;;;;4.78;1.85;;;;;;;;;;4969232;28;20304;-63
2023/10/27 04:12:07;;;;;;;7.07;2.10;;;;;;;;;;4971068;28;20049;-63
2023/10/27 04:14:32;;;;;;;4.57;2.20;;;;;;;;;;4964923;28;21006;-63
2023/10/27 04:16:57;;;;;;;6.78;2.17;;;;;;;;;;4970161;28;20105;-63
2023/10/27 04:19:22;;;;;;;3.58;1.60;;;;;;;;;;4971978;28;20017;-62
2023/10/27 04:21:48;;;;;;;4.40;1.90;;;;;;;;;;4970068;28;20018;-62
2023/10/27 04:24:13;;;;;;;4.10;2.07;;;;;;;;;;4961288;28;20296;-63
2023/10/27 04:26:39;;;;;;;4.00;2.10;;;;;;;;;;4966427;28;20273;-62
2023/10/27 04:29:04;;;;;;;4.53;1.95;;;;;;;;;;4965575;28;20312;-62
2023/10/27 04:31:29;;;;;;;3.35;1.40;;;;;;;;;;4968140;28;20107;-62
2023/10/27 04:33:56;;;;;;;4.35;2.20;;;;;;;;;;4970163;28;20076;-62
2023/10/27 04:36:21;;;;;;;3.75;1.95;;;;;;;;;;4968767;28;20026;-62
2023/10/27 04:38:47;;;;;;;2.30;1.00;;;;;;;;;;4969742;28;20030;-62
2023/10/27 04:41:12;;;;;;;7.47;2.25;;;;;;;;;;4968590;28;20437;-62
2023/10/27 04:43:38;;;;;;;2.08;0.98;;;;;;;;;;4971026;28;20026;-62
2023/10/27 04:46:03;;;;;;;4.13;1.60;;;;;;;;;;4967666;28;20026;-62
2023/10/27 04:48:28;;;;;;;5.43;1.75;;;;;;;;;;4966645;28;20387;-62
2023/10/27 04:50:58;;;;;;;2.58;1.30;;;;;;;;;;4972613;28;20191;-62
2023/10/27 04:53:24;;;;;;;5.38;2.03;;;;;;;;;;4964287;28;20030;-63
2023/10/27 04:55:49;;;;;;;4.15;1.60;;;;;;;;;;4969398;28;20184;-62
2023/10/27 04:58:14;;;;;;;3.80;1.53;;;;;;;;;;4967882;28;20030;-62
2023/10/27 05:00:40;;;;;;;2.80;1.37;;;;;;;;;;4970249;28;20284;-62
2023/10/27 05:03:06;;;;;;;3.38;1.60;;;;;;;;;;4962196;28;20297;-61
2023/10/27 05:05:31;;;;;;;4.80;1.58;;;;;;;;;;4962650;28;20025;-61
2023/10/27 05:07:57;;;;;;;2.78;1.35;;;;;;;;;;4963715;28;20026;-63
2023/10/27 05:10:22;;;;;;;5.20;1.90;;;;;;;;;;4971376;28;20018;-62
2023/10/27 05:12:48;;;;;;;5.68;1.85;;;;;;;;;;4963753;28;20305;-62
2023/10/27 05:15:14;;;;;;;4.53;1.77;;;;;;;;;;4969490;28;20037;-62
2023/10/27 05:17:39;;;;;;;5.78;1.85;;;;;;;;;;4969570;28;20018;-63
2023/10/27 05:20:05;;;;;;;4.37;2.20;;;;;;;;;;4961721;28;20029;-62
2023/10/27 05:22:31;;;;;;;4.70;2.05;;;;;;;;;;4969542;28;20321;-63
2023/10/27 05:24:57;;;;;;;3.20;1.65;;;;;;;;;;4969425;28;20024;-63
2023/10/27 05:27:23;;;;;;;6.10;1.90;;;;;;;;;;4968824;28;20026;-63
2023/10/27 05:29:48;;;;;;;4.20;1.85;;;;;;;;;;4969064;28;20037;-62
2023/10/27 05:32:15;;;;;;;3.43;2.27;;;;;;;;;;4970083;28;20132;-63
2023/10/27 05:34:40;;;;;;;7.30;2.10;;;;;;;;;;4965969;28;20276;-63
2023/10/27 05:37:05;;;;;;;7.27;2.77;;;;;;;;;;4961421;28;20026;-63
2023/10/27 05:39:31;;;;;;;4.82;2.40;;;;;;;;;;4971599;28;20276;-63
2023/10/27 05:41:56;;;;;;;5.20;2.42;;;;;;;;;;4967969;28;20905;-63
2023/10/27 05:44:21;;;;;;;4.47;2.30;;;;;;;;;;4978552;28;20111;-63
2023/10/27 05:46:47;;;;;;;4.28;2.38;;;;;;;;;;4969803;28;20069;-63
2023/10/27 05:49:12;;;;;;;3.78;2.00;;;;;;;;;;4970059;28;20065;-64
2023/10/27 05:51:37;;;;;;;7.20;2.10;;;;;;;;;;4970635;28;20898;-64
2023/10/27 05:54:04;;;;;;;2.92;1.52;;;;;;;;;;4969157;28;20874;-64
2023/10/27 05:56:29;;;;;;;7.05;2.10;;;;;;;;;;4968366;28;20041;-63
2023/10/27 05:58:55;;;;;;;4.38;2.17;;;;;;;;;;4968841;28;20061;-63
2023/10/27 06:01:20;;;;;;;3.58;2.00;;;;;;;;;;4969356;28;20867;-64
2023/10/27 06:03:46;;;;;;;3.63;1.85;;;;;;;;;;4969922;28;20899;-64
2023/10/27 06:06:11;;;;;;;3.45;1.80;;;;;;;;;;4958577;28;20025;-64
2023/10/27 06:08:41;;;;;;;3.83;2.30;;;;;;;;;;4969619;28;20030;-63
2023/10/27 06:11:06;;;;;;;4.43;2.38;;;;;;;;;;4968025;28;20395;-64
2023/10/27 06:13:31;;;;;;;5.95;3.05;;;;;;;;;;4956497;28;20799;-64
2023/10/27 06:15:57;;;;;;;5.38;3.35;;;;;;;;;;4968612;28;20165;-64
2023/10/27 06:18:22;;;;;;;7.60;4.05;;;;;;;;;;4969877;28;20025;-64
2023/10/27 06:20:47;;;;;;;6.95;3.60;;;;;;;;;;4969859;28;20032;-64
2023/10/27 06:23:12;;;;;;;6.57;3.93;;;;;;;;;;4968821;28;20033;-64
2023/10/27 06:25:38;;;;;;;6.85;4.13;;;;;;;;;;4968035;28;20285;-64
2023/10/27 06:28:03;;;;;;;6.43;4.10;;;;;;;;;;4958194;28;20851;-64
2023/10/27 06:30:28;;;;;;;8.05;4.53;;;;;;;;;;4969174;28;21296;-64
2023/10/27 06:32:54;;;;;;;8.20;4.65;;;;;;;;;;4967629;28;20038;-63
2023/10/27 06:35:19;;;;;;;11.50;6.63;;;;;;;;;;4968753;28;20029;-63
2023/10/27 06:37:44;;;;;;;10.57;5.83;;;;;;;;;;4967688;28;20042;-64
2023/10/27 06:40:10;;;;;;;10.53;6.10;;;;;;;;;;4968486;28;20376;-64
2023/10/27 06:42:36;;;;;;;7.90;4.63;;;;;;;;;;4966913;28;20331;-64
2023/10/27 06:45:03;;;;;;;8.43;5.00;;;;;;;;;;4968914;28;20077;-63
2023/10/27 06:47:28;;;;;;;7.05;5.28;;;;;;;;;;4973175;28;20029;-64
2023/10/27 06:49:54;;;;;;;8.55;6.07;;;;;;;;;;4973574;28;20058;-62
2023/10/27 06:52:19;;;;;;;11.10;7.20;;;;;;;;;;4971627;28;20037;-63
2023/10/27 06:54:46;;;;;;;8.73;5.55;;;;;;;;;;4972371;28;20030;-63
2023/10/27 06:57:11;;;;;;;12.20;6.13;;;;;;;;;;4974146;28;20088;-63
2023/10/27 06:59:36;;;;;;;9.82;6.03;;;;;;;;;;4969135;28;20056;-62
2023/10/27 07:02:03;;;;;;;10.88;7.50;;;;;;;;;;4970796;28;20026;-63
2023/10/27 07:04:28;;;;;;;13.40;7.00;;;;;;;;;;4971886;28;20025;-63
2023/10/27 07:06:54;;;;;;;13.73;7.10;;;;;;;;;;4960580;28;20129;-63
2023/10/27 07:09:19;;;;;;;12.23;7.85;;;;;;;;;;4969338;28;20128;-63
2023/10/27 07:11:44;;;;;;;10.90;7.50;;;;;;;;;;4961424;28;20145;-64
2023/10/27 07:14:12;;;;;;;12.38;7.72;;;;;;;;;;4971981;28;20033;-63
2023/10/27 07:16:39;;;;;;;12.57;6.70;;;;;;;;;;4963577;28;20045;-64
2023/10/27 07:19:04;;;;;;;12.77;7.80;;;;;;;;;;4971468;28;20986;-63
2023/10/27 07:21:29;;;;;;;10.50;6.45;;;;;;;;;;4970909;28;20054;-63
2023/10/27 07:23:55;;;;;;;8.33;5.97;;;;;;;;;;4971968;28;20022;-64
2023/10/27 07:26:21;;;;;;;11.05;5.93;;;;;;;;;;4971143;28;20829;-64
2023/10/27 07:28:46;;;;;;;8.95;5.30;;;;;;;;;;4971323;28;20098;-63
2023/10/27 07:31:12;;;;;;;8.10;5.60;;;;;;;;;;4970604;28;20035;-63
2023/10/27 07:33:38;;;;;;;8.05;5.30;;;;;;;;;;4970554;28;20125;-63
2023/10/27 07:36:04;;;;;;;8.43;5.55;;;;;;;;;;4972150;28;20267;-64
2023/10/27 07:38:30;;;;;;;10.18;5.60;;;;;;;;;;4969477;28;20029;-63
2023/10/27 07:40:58;;;;;;;7.72;5.30;;;;;;;;;;4970109;28;20064;-63
2023/10/27 07:43:24;;;;;;;7.13;5.15;;;;;;;;;;4973734;28;20018;-63
2023/10/27 07:45:49;;;;;;;10.35;5.72;;;;;;;;;;4974037;28;20088;-63
2023/10/27 07:48:14;;;;;;;7.90;5.53;;;;;;;;;;4975022;28;20022;-64
2023/10/27 07:50:40;;;;;;;8.32;5.88;;;;;;;;;;4972016;28;20308;-65
2023/10/27 07:53:05;;;;;;;8.02;4.35;;;;;;;;;;4970981;28;20029;-65
2023/10/27 07:55:30;;;;;;;8.43;4.85;;;;;;;;;;4971722;28;20137;-65
2023/10/27 07:57:56;;;;;;;5.87;4.23;;;;;;;;;;4971517;28;20850;-65
2023/10/27 08:00:21;;;;;;;6.07;3.70;;;;;;;;;;4971596;28;20384;-64
2023/10/27 08:02:47;;;;;;;5.90;3.47;;;;;;;;;;4959313;28;20268;-65
2023/10/27 08:05:12;;;;;;;6.30;3.77;;;;;;;;;;4972746;28;20085;-64
2023/10/27 08:07:37;;;;;;;4.93;3.07;;;;;;;;;;4970607;28;20330;-64
2023/10/27 08:10:07;;;;;;;5.53;3.65;;;;;;;;;;4972074;28;20268;-64
2023/10/27 08:12:32;;;;;;;9.20;3.40;;;;;;;;;;4970225;28;20066;-64
2023/10/27 08:14:57;;;;;;;4.28;3.03;;;;;;;;;;4968453;28;20022;-64
2023/10/27 08:17:23;;;;;;;5.95;3.67;;;;;;;;;;4970104;28;20120;-64
2023/10/27 08:19:48;;;;;;;5.88;3.55;;;;;;;;;;4969873;28;20133;-64
2023/10/27 08:22:13;;;;;;;8.93;4.43;;;;;;;;;;4968882;28;20030;-64
2023/10/27 08:24:38;;;;;;;8.90;4.63;;;;;;;;;;4960306;28;20235;-64
2023/10/27 08:27:04;;;;;;;7.05;4.45;;;;;;;;;;4970542;28;20937;-64
2023/10/27 08:29:29;;;;;;;7.85;4.30;;;;;;;;;;4969638;28;20971;-63
2023/10/27 08:31:54;;;;;;;9.63;5.38;;;;;;;;;;4970663;28;20081;-63
2023/10/27 08:34:21;;;;;;;8.97;5.20;;;;;;;;;;4969887;28;20033;-65
2023/10/27 08:36:47;;;;;;;14.52;6.10;;;;;;;;;;4968668;28;20347;-64
2023/10/27 08:39:12;;;;;;;8.98;5.55;;;;;;;;;;4962967;28;20893;-63
2023/10/27 08:41:37;;;;;;;11.63;6.15;;;;;;;;;;4970717;28;20029;-63
2023/10/27 08:44:03;;;;;;;11.55;6.03;;;;;;;;;;4971628;28;20030;-63
2023/10/27 08:46:29;;;;;;;12.93;6.90;;;;;;;;;;4969514;28;20017;-63
2023/10/27 08:48:55;;;;;;;10.13;6.32;;;;;;;;;;4969532;28;20872;-63
2023/10/27 08:51:20;;;;;;;14.75;7.80;;;;;;;;;;4970086;28;20363;-63
2023/10/27 08:53:46;;;;;;;13.05;7.20;;;;;;;;;;4969783;28;20025;-63
2023/10/27 08:56:12;;;;;;;13.05;7.57;;;;;;;;;;4971378;28;20038;-63
2023/10/27 08:58:47;;;;;;;12.15;7.63;;;;;;;;;;4970387;28;20037;-63
2023/10/27 09:01:13;;;;;;;14.23;7.85;;;;;;;;;;4969817;28;20018;-63
2023/10/27 09:03:38;;;;;;;11.60;7.03;;;;;;;;;;4971294;28;20033;-63
2023/10/27 09:06:04;;;;;;;13.75;7.95;;;;;;;;;;4970129;28;20102;-63
2023/10/27 09:08:29;;;;;;;13.93;7.40;;;;;;;;;;4967944;28;20037;-63
2023/10/27 09:10:55;;;;;;;12.70;8.02;;;;;;;;;;4969565;28;20036;-64
2023/10/27 09:13:21;;;;;;;16.70;8.02;;;;;;;;;;4968653;28;20017;-63
2023/10/27 09:15:46;;;;;;;11.57;6.95;;;;;;;;;;4967612;28;20155;-63
2023/10/27 09:18:13;;;;;;;12.90;7.22;;;;;;;;;;4969574;28;20852;-63
2023/10/27 09:20:48;;;;;;;11.73;6.68;;;;;;;;;;4965093;28;20033;-63
2023/10/27 09:23:13;;;;;;;15.15;7.15;;;;;;;;;;4970403;28;20865;-63
2023/10/27 09:25:39;;;;;;;13.63;7.35;;;;;;;;;;4966556;28;20033;-64
2023/10/27 09:28:05;;;;;;;12.40;8.00;;;;;;;;;;4982804;28;20038;-63
2023/10/27 09:30:32;;;;;;;12.50;7.75;;;;;;;;;;4999336;28;20033;-63
2023/10/27 09:33:18;;;;;;;14.05;8.05;;;;;;;;;;4965414;28;20026;-63
2023/10/27 09:35:44;;;;;;;13.32;6.95;;;;;;;;;;4968732;28;20053;-64
2023/10/27 09:38:10;;;;;;;13.20;8.02;;;;;;;;;;4971247;28;20029;-63
2023/10/27 09:40:36;;;;;;;11.40;8.27;;;;;;;;;;4966417;28;20053;-64
2023/10/27 09:43:02;;;;;;;12.93;7.70;;;;;;;;;;4969069;28;20022;-63
2023/10/27 09:45:30;;;;;;;13.05;8.25;;;;;;;;;;4967633;28;20819;-63
2023/10/27 09:48:02;;;;;;;12.38;7.72;;;;;;;;;;4969939;28;20038;-63
2023/10/27 09:50:28;;;;;;;13.10;8.05;;;;;;;;;;4969945;28;20026;-64
2023/10/27 09:52:56;;;;;;;12.32;7.95;;;;;;;;;;4969994;28;20025;-63
2023/10/27 09:55:21;;;;;;;13.35;7.35;;;;;;;;;;4968809;28;20026;-64
2023/10/27 09:57:47;;;;;;;12.80;7.47;;;;;;;;;;4969189;28;20891;-64
2023/10/27 10:00:14;;;;;;;11.30;7.75;;;;;;;;;;4969585;28;20893;-63
2023/10/27 10:02:42;;;;;;;12.27;8.05;;;;;;;;;;4971404;28;20021;-64
2023/10/27 10:05:09;;;;;;;11.23;7.22;;;;;;;;;;4970809;28;20026;-63
2023/10/27 10:07:44;;;;;;;16.58;8.30;;;;;;;;;;4964906;28;20026;-64
2023/10/27 10:10:44;;;;;;;12.38;7.35;;;;;;;;;;4970216;28;20394;-64
2023/10/27 10:13:19;;;;;;;11.23;7.38;;;;;;;;;;4969663;28;20056;-63
2023/10/27 10:15:45;;;;;;;14.20;8.85;;;;;;;;;;4967849;28;20030;-64
2023/10/27 10:18:19;;;;;;;13.52;7.53;;;;;;;;;;4967966;28;20188;-64
2023/10/27 10:20:45;;;;;;;12.60;8.07;;;;;;;;;;4967404;28;20040;-64
2023/10/27 10:23:11;;;;;;;12.23;6.25;;;;;;;;;;4970920;28;20029;-64
2023/10/27 10:25:50;;;;;;;8.15;5.20;;;;;;;;;;4963079;28;20101;-64
2023/10/27 10:28:16;;;;;;;9.80;6.15;;;;;;;;;;4973077;28;20038;-64
2023/10/27 10:30:42;;;;;;;10.82;5.95;;;;;;;;;;4972402;28;20022;-64
2023/10/27 10:33:19;;;;;;;11.90;5.93;;;;;;;;;;4972087;28;20132;-64
2023/10/27 10:35:48;;;;;;;12.45;5.47;;;;;;;;;;4972898;28;20037;-64
2023/10/27 10:38:19;;;;;;;13.98;6.03;;;;;;;;;;4973454;28;20026;-64
2023/10/27 10:40:55;;;;;;;8.15;5.25;;;;;;;;;;4972955;28;20026;-63
2023/10/27 10:43:23;;;;;;;6.00;3.28;;;;;;;;;;4972818;28;20084;-62
2023/10/27 10:45:56;;;;;;;13.35;4.57;;;;;;;;;;4971663;28;20029;-63
2023/10/27 10:48:22;;;;;;;8.15;4.15;;;;;;;;;;4988169;28;20041;-62
2023/10/27 10:50:49;;;;;;;8.50;3.00;;;;;;;;;;5013576;28;20416;-62
2023/10/27 10:53:19;;;;;;;6.78;2.90;;;;;;;;;;5013326;28;20105;-62
2023/10/27 10:55:45;;;;;;;6.97;3.65;;;;;;;;;;5008739;28;20022;-63
2023/10/27 10:58:18;;;;;;;7.03;3.10;;;;;;;;;;4982218;28;20784;-62
2023/10/27 11:00:44;;;;;;;5.35;3.13;;;;;;;;;;4963035;28;20034;-63
2023/10/27 11:03:09;;;;;;;7.25;3.13;;;;;;;;;;4972245;28;20164;-63
2023/10/27 11:05:35;;;;;;;7.63;3.45;;;;;;;;;;5001891;28;20109;-63
2023/10/27 11:08:01;;;;;;;4.13;2.10;;;;;;;;;;5004718;28;20383;-63
2023/10/27 11:10:26;;;;;;;8.90;3.15;;;;;;;;;;5013583;28;20072;-62
2023/10/27 11:12:51;;;;;;;4.80;1.90;;;;;;;;;;5013366;28;20033;-63
2023/10/27 11:15:36;;;;;;;4.70;2.55;;;;;;;;;;5013805;28;20369;-62
2023/10/27 11:18:05;;;;;;;5.47;2.55;;;;;;;;;;5002993;28;20088;-62
2023/10/27 11:20:37;;;;;;;3.35;2.22;;;;;;;;;;5013095;28;20095;-62
2023/10/27 11:23:09;;;;;;;6.32;2.05;;;;;;;;;;5013943;28;20034;-62
2023/10/27 11:25:35;;;;;;;5.38;2.35;;;;;;;;;;5013389;28;20041;-62
2023/10/27 11:28:19;;;;;;;6.13;2.30;;;;;;;;;;5013914;28;20532;-63
2023/10/27 11:30:56;;;;;;;7.03;2.35;;;;;;;;;;5013686;28;20076;-62
2023/10/27 11:33:21;;;;;;;6.00;2.17;;;;;;;;;;5013168;28;20034;-61
2023/10/27 11:35:47;;;;;;;8.40;2.23;;;;;;;;;;5010071;28;20369;-61
2023/10/27 11:38:12;;;;;;;5.60;2.15;;;;;;;;;;5013013;28;20655;-69
2023/10/27 11:40:38;;;;;;;6.75;2.58;;;;;;;;;;5004786;28;20030;-65
2023/10/27 11:43:03;;;;;;;6.22;2.72;;;;;;;;;;5004612;28;20077;-64
2023/10/27 11:45:29;;;;;;;4.93;1.85;;;;;;;;;;4968906;28;20204;-63
2023/10/27 11:47:54;;;;;;;7.57;2.25;;;;;;;;;;4974928;28;20062;-60
2023/10/27 11:50:19;;;;;;;5.67;1.93;;;;;;;;;;4970255;28;20034;-66
2023/10/27 11:52:44;;;;;;;9.55;2.53;;;;;;;;;;4971727;28;20277;-66
2023/10/27 11:55:09;;;;;;;3.47;1.80;;;;;;;;;;4969283;28;20043;-66
2023/10/27 11:57:36;;;;;;;4.07;1.93;;;;;;;;;;4964426;28;20275;-62
2023/10/27 12:00:01;;;;;;;6.47;1.92;;;;;;;;;;4972245;28;20285;-61
2023/10/27 12:02:26;;;;;;;4.43;1.45;;;;;;;;;;4971632;28;20130;-63
2023/10/27 12:04:52;;;;;;;5.22;1.60;;;;;;;;;;4978925;28;20389;-62
2023/10/27 12:07:17;;;;;;;6.93;2.13;;;;;;;;;;5013014;28;20112;-62
2023/10/27 12:09:42;;;;;;;5.13;2.40;;;;;;;;;;5012688;28;20026;-62
2023/10/27 12:12:10;;;;;;;4.35;2.15;;;;;;;;;;5012287;28;20033;-63
2023/10/27 12:14:35;;;;;;;4.47;1.95;;;;;;;;;;5012298;28;20022;-63
2023/10/27 12:17:01;;;;;;;5.53;2.22;;;;;;;;;;5012535;28;20021;-63
2023/10/27 12:19:27;;;;;;;5.30;2.08;;;;;;;;;;5012248;28;20022;-62
2023/10/27 12:21:52;;;;;;;8.20;2.15;;;;;;;;;;5012702;28;20033;-62
2023/10/27 12:24:17;;;;;;;5.07;1.80;;;;;;;;;;5011441;28;20669;-62
2023/10/27 12:26:44;;;;;;;5.72;1.63;;;;;;;;;;5012542;28;20452;-65
2023/10/27 12:29:10;;;;;;;7.13;2.20;;;;;;;;;;5011908;28;20495;-61
2023/10/27 12:31:35;;;;;;;4.25;1.70;;;;;;;;;;5011823;28;20025;-61
2023/10/27 12:34:01;;;;;;;6.78;1.55;;;;;;;;;;5011002;28;20030;-61
2023/10/27 12:36:26;;;;;;;4.32;1.85;;;;;;;;;;5004470;28;20036;-62
2023/10/27 12:38:51;;;;;;;5.90;1.80;;;;;;;;;;5012041;28;20037;-61
2023/10/27 12:41:16;;;;;;;5.57;1.73;;;;;;;;;;5011850;28;20076;-64
2023/10/27 12:43:42;;;;;;;4.63;2.00;;;;;;;;;;5011785;28;20334;-63
2023/10/27 12:46:07;;;;;;;2.75;1.48;;;;;;;;;;5011838;28;20303;-63
2023/10/27 12:48:33;;;;;;;4.88;1.95;;;;;;;;;;5012604;28;20480;-63
2023/10/27 12:50:59;;;;;;;2.92;1.00;;;;;;;;;;5012269;28;20029;-64
2023/10/27 12:53:24;;;;;;;3.17;1.65;;;;;;;;;;5011823;28;20034;-64
2023/10/27 12:55:49;;;;;;;7.47;1.92;;;;;;;;;;5012783;28;20022;-70
2023/10/27 12:58:15;;;;;;;8.82;1.85;;;;;;;;;;5011555;28;20411;-64
2023/10/27 13:00:40;;;;;;;4.72;2.13;;;;;;;;;;5012434;28;20018;-64
2023/10/27 13:03:05;;;;;;;4.55;2.13;;;;;;;;;;5011780;28;20392;-63
2023/10/27 13:05:31;;;;;;;4.57;1.85;;;;;;;;;;5011810;28;20041;-63
2023/10/27 13:07:56;;;;;;;7.55;2.35;;;;;;;;;;5010770;28;20058;-64
2023/10/27 13:10:22;;;;;;;5.75;2.25;;;;;;;;;;5011785;28;20056;-64
2023/10/27 13:12:49;;;;;;;3.83;2.10;;;;;;;;;;5011387;28;20474;-65
2023/10/27 13:15:14;;;;;;;2.88;1.63;;;;;;;;;;5011155;28;20041;-64
2023/10/27 13:17:40;;;;;;;3.75;1.80;;;;;;;;;;5011467;28;20049;-64
2023/10/27 13:20:05;;;;;;;6.57;1.88;;;;;;;;;;5012109;28;20030;-64
2023/10/27 13:22:33;;;;;;;3.42;1.60;;;;;;;;;;5011945;28;20033;-64
2023/10/27 13:24:59;;;;;;;3.88;2.03;;;;;;;;;;5012113;28;20029;-64
2023/10/27 13:27:24;;;;;;;6.32;2.47;;;;;;;;;;5011849;28;20185;-65
2023/10/27 13:29:49;;;;;;;5.93;2.25;;;;;;;;;;5011761;28;20029;-64
2023/10/27 13:32:15;;;;;;;5.50;2.30;;;;;;;;;;5010869;28;20034;-64
2023/10/27 13:34:40;;;;;;;4.47;2.13;;;;;;;;;;5011510;28;20404;-62
2023/10/27 13:37:06;;;;;;;4.68;2.13;;;;;;;;;;5011212;28;20033;-64
2023/10/27 13:39:34;;;;;;;3.50;1.27;;;;;;;;;;5011400;28;20024;-64
2023/10/27 13:42:01;;;;;;;3.33;1.42;;;;;;;;;;5006638;28;20022;-64
2023/10/27 13:44:27;;;;;;;4.50;1.60;;;;;;;;;;5011260;28;20026;-64
2023/10/27 13:46:52;;;;;;;6.40;1.58;;;;;;;;;;5010914;28;20026;-64
2023/10/27 13:49:19;;;;;;;4.53;1.55;;;;;;;;;;5011355;28;20116;-64
2023/10/27 13:51:45;;;;;;;4.88;1.20;;;;;;;;;;5011304;28;20112;-63
2023/10/27 13:54:11;;;;;;;3.55;1.38;;;;;;;;;;5011358;28;20214;-72
2023/10/27 13:56:36;;;;;;;2.40;1.00;;;;;;;;;;5010884;28;20529;-69
2023/10/27 13:59:03;;;;;;;3.35;1.35;;;;;;;;;;5011057;28;20691;-73
2023/10/27 14:01:28;;;;;;;1.90;0.57;;;;;;;;;;5010252;28;20014;-74
2023/10/27 14:03:54;;;;;;;2.50;0.95;;;;;;;;;;5003832;28;20396;-73
2023/10/27 14:06:20;;;;;;;2.55;0.60;;;;;;;;;;5010873;28;20026;-72
2023/10/27 14:08:45;;;;;;;1.02;0.52;;;;;;;;;;5010942;28;20025;-75
2023/10/27 14:11:10;;;;;;;2.30;0.80;;;;;;;;;;5010545;28;20028;-73
2023/10/27 14:13:36;;;;;;;2.88;0.90;;;;;;;;;;5010668;28;20054;-73
2023/10/27 14:16:01;;;;;;;2.03;0.77;;;;;;;;;;5009550;28;20542;-73
2023/10/27 14:18:26;;;;;;;2.85;0.57;;;;;;;;;;5010327;28;20025;-72
2023/10/27 14:20:54;;;;;;;2.45;0.60;;;;;;;;;;5010849;28;20033;-72
2023/10/27 14:23:19;;;;;;;2.22;0.40;;;;;;;;;;5011090;28;20064;-72
2023/10/27 14:25:44;;;;;;;2.28;0.85;;;;;;;;;;5010480;28;20069;-72
2023/10/27 14:28:10;;;;;;;2.20;0.70;;;;;;;;;;5010083;28;20045;-72
2023/10/27 14:30:36;;;;;;;2.63;0.50;;;;;;;;;;5010139;28;20034;-72
2023/10/27 14:33:01;;;;;;;1.50;0.60;;;;;;;;;;5010699;28;20024;-73
2023/10/27 14:35:29;;;;;;;2.40;0.80;;;;;;;;;;5010190;28;20497;-74